Time,TemperatureF,DewpointF,PressureIn,WindDirection,WindDirectionDegrees,WindSpeedMPH,WindSpeedGustMPH,Humidity,HourlyPrecipIn,Conditions,Clouds,dailyrainin,SoftwareType,DateUTC
2013-02-04 00:02:00,20.6,16.0,30.10,South,169,0.0,4.0,82,0.00,,,0.00,weatherlink.com 1.10,2013-02-04 05:02:00,
2013-02-04 00:17:00,20.9,16.0,30.09,SSE,157,2.0,3.0,81,0.00,,,0.00,weatherlink.com 1.10,2013-02-04 05:17:00,
2013-02-04 00:32:00,21.6,17.0,30.09,South,173,4.0,6.0,82,0.00,,,0.00,weatherlink.com 1.10,2013-02-04 05:32:00,
2013-02-04 00:47:00,21.7,17.0,30.09,SSE,167,2.0,5.0,81,0.00,,,0.00,weatherlink.com 1.10,2013-02-04 05:47:00,
2013-02-04 01:02:00,21.7,17.0,30.09,South,169,2.0,4.0,81,0.00,,,0.00,weatherlink.com 1.10,2013-02-04 06:02:00,
2013-02-04 01:17:00,22.0,17.0,30.09,South,169,1.0,3.0,81,0.00,,,0.00,weatherlink.com 1.10,2013-02-04 06:17:00,
2013-02-04 01:32:00,22.2,17.0,30.09,South,169,3.0,3.0,81,0.00,,,0.00,weatherlink.com 1.10,2013-02-04 06:32:00,
2013-02-04 01:47:00,22.4,18.0,30.09,South,173,2.0,4.0,82,0.00,,,0.00,weatherlink.com 1.10,2013-02-04 06:47:00,
2013-02-04 02:02:00,22.5,18.0,30.09,South,175,2.0,5.0,83,0.00,,,0.00,weatherlink.com 1.10,2013-02-04 07:02:00,
2013-02-04 02:17:00,22.3,19.0,30.08,South,175,4.0,5.0,86,0.00,,,0.00,weatherlink.com 1.10,2013-02-04 07:17:00,
2013-02-04 02:32:00,21.9,19.0,30.08,South,173,1.0,5.0,89,0.00,,,0.00,weatherlink.com 1.10,2013-02-04 07:32:00,
2013-02-04 02:47:00,21.7,20.0,30.08,South,172,0.0,4.0,91,0.00,,,0.00,weatherlink.com 1.10,2013-02-04 07:47:00,
2013-02-04 03:02:00,21.7,20.0,30.08,South,169,0.0,1.0,91,0.00,,,0.00,weatherlink.com 1.10,2013-02-04 08:02:00,
2013-02-04 03:17:00,21.6,19.0,30.08,SSE,165,0.0,0.0,91,0.00,,,0.00,weatherlink.com 1.10,2013-02-04 08:17:00,
2013-02-04 03:32:00,21.6,19.0,30.07,ESE,122,0.0,2.0,91,0.00,,,0.00,weatherlink.com 1.10,2013-02-04 08:32:00,
2013-02-04 03:47:00,21.7,19.0,30.06,ESE,105,1.0,3.0,90,0.00,,,0.00,weatherlink.com 1.10,2013-02-04 08:47:00,
2013-02-04 04:03:00,21.7,19.0,30.05,East,100,2.0,3.0,90,0.00,,,0.00,weatherlink.com 1.10,2013-02-04 09:03:00,
2013-02-04 04:17:00,21.9,19.0,30.04,ENE,74,2.0,4.0,89,0.00,,,0.00,weatherlink.com 1.10,2013-02-04 09:17:00,
2013-02-04 04:32:00,22.2,19.0,30.04,East,81,3.0,7.0,87,0.00,,,0.00,weatherlink.com 1.10,2013-02-04 09:32:00,
2013-02-04 04:47:00,22.4,19.0,30.02,East,82,6.0,8.0,86,0.00,,,0.00,weatherlink.com 1.10,2013-02-04 09:47:00,
2013-02-04 05:02:00,22.4,19.0,30.01,ENE,77,2.0,7.0,85,0.00,,,0.00,weatherlink.com 1.10,2013-02-04 10:02:00,
2013-02-04 05:17:00,22.6,19.0,30.01,East,87,5.0,7.0,86,0.00,,,0.00,weatherlink.com 1.10,2013-02-04 10:17:00,
2013-02-04 05:33:00,22.8,19.0,30.00,East,88,5.0,8.0,85,0.00,,,0.00,weatherlink.com 1.10,2013-02-04 10:33:00,
2013-02-04 05:48:00,23.0,19.0,30.00,East,86,6.0,7.0,84,0.00,,,0.00,weatherlink.com 1.10,2013-02-04 10:48:00,
2013-02-04 06:03:00,23.2,19.0,29.99,East,84,5.0,7.0,84,0.00,,,0.00,weatherlink.com 1.10,2013-02-04 11:03:00,
2013-02-04 06:18:00,23.3,19.0,29.98,ENE,77,4.0,8.0,83,0.00,,,0.00,weatherlink.com 1.10,2013-02-04 11:18:00,
2013-02-04 06:33:00,23.4,19.0,29.97,East,89,5.0,9.0,83,0.00,,,0.00,weatherlink.com 1.10,2013-02-04 11:33:00,
2013-02-04 06:48:00,23.4,19.0,29.97,ENE,76,2.0,6.0,83,0.00,,,0.00,weatherlink.com 1.10,2013-02-04 11:48:00,
2013-02-04 07:03:00,23.5,19.0,29.97,ENE,71,3.0,7.0,83,0.00,,,0.00,weatherlink.com 1.10,2013-02-04 12:03:00,
2013-02-04 07:18:00,23.7,19.0,29.97,East,90,6.0,7.0,83,0.00,,,0.00,weatherlink.com 1.10,2013-02-04 12:18:00,
2013-02-04 07:33:00,23.9,20.0,29.96,East,83,8.0,10.0,83,0.00,,,0.00,weatherlink.com 1.10,2013-02-04 12:33:00,
2013-02-04 07:48:00,23.9,20.0,29.95,ENE,77,9.0,11.0,83,0.00,,,0.00,weatherlink.com 1.10,2013-02-04 12:48:00,
2013-02-04 08:03:00,24.1,19.0,29.94,East,80,8.0,11.0,82,0.00,,,0.00,weatherlink.com 1.10,2013-02-04 13:03:00,
2013-02-04 08:18:00,24.3,20.0,29.93,ENE,65,4.0,10.0,82,0.00,,,0.00,weatherlink.com 1.10,2013-02-04 13:18:00,
2013-02-04 08:33:00,24.0,20.0,29.93,ENE,73,8.0,12.0,83,0.00,,,0.00,weatherlink.com 1.10,2013-02-04 13:33:00,
2013-02-04 08:48:00,24.3,20.0,29.92,East,100,6.0,13.0,84,0.00,,,0.00,weatherlink.com 1.10,2013-02-04 13:48:00,
2013-02-04 09:03:00,24.7,20.0,29.91,East,90,11.0,16.0,82,0.00,,,0.00,weatherlink.com 1.10,2013-02-04 14:03:00,
2013-02-04 09:18:00,25.0,20.0,29.91,ENE,70,10.0,16.0,82,0.00,,,0.00,weatherlink.com 1.10,2013-02-04 14:18:00,
2013-02-04 09:33:00,25.3,21.0,29.90,East,80,11.0,18.0,82,0.00,,,0.00,weatherlink.com 1.10,2013-02-04 14:33:00,
2013-02-04 09:48:00,25.6,21.0,29.89,ESE,106,12.0,14.0,81,0.00,,,0.00,weatherlink.com 1.10,2013-02-04 14:48:00,
2013-02-04 10:03:00,26.1,21.0,29.90,East,90,7.0,15.0,80,0.00,,,0.00,weatherlink.com 1.10,2013-02-04 15:03:00,
2013-02-04 10:18:00,26.7,21.0,29.89,East,88,8.0,14.0,78,0.00,,,0.00,weatherlink.com 1.10,2013-02-04 15:18:00,
2013-02-04 10:33:00,27.2,21.0,29.90,ESE,107,5.0,16.0,78,0.00,,,0.00,weatherlink.com 1.10,2013-02-04 15:33:00,
2013-02-04 10:48:00,28.0,21.0,29.90,ESE,111,2.0,9.0,75,0.00,,,0.00,weatherlink.com 1.10,2013-02-04 15:48:00,
2013-02-04 11:03:00,28.5,21.0,29.89,ESE,113,2.0,8.0,74,0.00,,,0.00,weatherlink.com 1.10,2013-02-04 16:03:00,
2013-02-04 11:18:00,28.9,21.0,29.89,East,91,5.0,9.0,73,0.00,,,0.00,weatherlink.com 1.10,2013-02-04 16:18:00,
2013-02-04 11:33:00,29.2,22.0,29.89,ESE,120,5.0,9.0,74,0.00,,,0.00,weatherlink.com 1.10,2013-02-04 16:33:00,
2013-02-04 11:48:00,29.4,22.0,29.88,ESE,102,7.0,10.0,75,0.00,,,0.00,weatherlink.com 1.10,2013-02-04 16:48:00,
2013-02-04 12:03:00,29.5,23.0,29.88,ESE,109,4.0,13.0,75,0.00,,,0.00,weatherlink.com 1.10,2013-02-04 17:03:00,
2013-02-04 12:18:00,29.9,23.0,29.87,ESE,115,7.0,10.0,75,0.00,,,0.00,weatherlink.com 1.10,2013-02-04 17:18:00,
2013-02-04 12:34:00,30.2,24.0,29.86,ESE,108,8.0,9.0,76,0.00,,,0.00,weatherlink.com 1.10,2013-02-04 17:34:00,
2013-02-04 12:49:00,30.5,24.0,29.85,ESE,115,8.0,9.0,76,0.00,,,0.00,weatherlink.com 1.10,2013-02-04 17:49:00,
2013-02-04 13:04:00,30.9,24.0,29.85,ESE,108,8.0,10.0,76,0.00,,,0.00,weatherlink.com 1.10,2013-02-04 18:04:00,
2013-02-04 13:19:00,31.5,25.0,29.85,ESE,107,2.0,9.0,77,0.00,,,0.00,weatherlink.com 1.10,2013-02-04 18:19:00,
2013-02-04 13:34:00,32.0,25.0,29.84,SE,135,2.0,9.0,75,0.00,,,0.00,weatherlink.com 1.10,2013-02-04 18:34:00,
2013-02-04 13:49:00,32.6,26.0,29.83,ESE,105,3.0,8.0,76,0.00,,,0.00,weatherlink.com 1.10,2013-02-04 18:49:00,
2013-02-04 14:04:00,33.2,26.0,29.83,SE,136,2.0,3.0,75,0.00,,,0.00,weatherlink.com 1.10,2013-02-04 19:04:00,
2013-02-04 14:19:00,33.5,26.0,29.83,ESE,110,2.0,9.0,75,0.00,,,0.00,weatherlink.com 1.10,2013-02-04 19:19:00,
2013-02-04 14:34:00,33.7,27.0,29.82,SE,130,0.0,8.0,75,0.00,,,0.00,weatherlink.com 1.10,2013-02-04 19:34:00,
2013-02-04 14:49:00,35.3,27.0,29.82,ESE,109,0.0,3.0,73,0.00,,,0.00,weatherlink.com 1.10,2013-02-04 19:49:00,
2013-02-04 15:04:00,35.2,28.0,29.82,SE,140,0.0,2.0,74,0.00,,,0.00,weatherlink.com 1.10,2013-02-04 20:04:00,
2013-02-04 15:19:00,34.5,28.0,29.82,South,182,2.0,4.0,77,0.01,,,0.01,weatherlink.com 1.10,2013-02-04 20:19:00,
2013-02-04 15:34:00,34.3,28.0,29.82,South,191,3.0,5.0,79,0.01,,,0.01,weatherlink.com 1.10,2013-02-04 20:34:00,
2013-02-04 15:49:00,34.5,28.0,29.82,SSW,194,0.0,3.0,77,0.01,,,0.01,weatherlink.com 1.10,2013-02-04 20:49:00,
2013-02-04 16:04:00,35.0,29.0,29.83,SSW,201,0.0,1.0,78,0.01,,,0.01,weatherlink.com 1.10,2013-02-04 21:04:00,
2013-02-04 16:19:00,35.3,29.0,29.83,WSW,246,0.0,1.0,78,0.00,,,0.01,weatherlink.com 1.10,2013-02-04 21:19:00,
2013-02-04 16:34:00,35.5,29.0,29.84,SSW,207,0.0,2.0,78,0.00,,,0.01,weatherlink.com 1.10,2013-02-04 21:34:00,
2013-02-04 16:49:00,35.2,29.0,29.83,NW,315,2.0,7.0,78,0.00,,,0.01,weatherlink.com 1.10,2013-02-04 21:49:00,
2013-02-04 17:04:00,34.6,28.0,29.84,NW,304,4.0,5.0,77,0.00,,,0.01,weatherlink.com 1.10,2013-02-04 22:04:00,
2013-02-04 17:19:00,34.0,28.0,29.83,WNW,285,5.0,6.0,78,0.00,,,0.01,weatherlink.com 1.10,2013-02-04 22:19:00,
2013-02-04 17:34:00,33.1,27.0,29.83,West,277,1.0,6.0,79,0.00,,,0.01,weatherlink.com 1.10,2013-02-04 22:34:00,
2013-02-04 17:49:00,32.6,27.0,29.83,West,277,0.0,0.0,80,0.00,,,0.01,weatherlink.com 1.10,2013-02-04 22:49:00,
2013-02-04 18:04:00,32.0,27.0,29.82,West,277,0.0,0.0,81,0.00,,,0.01,weatherlink.com 1.10,2013-02-04 23:04:00,
2013-02-04 18:19:00,31.1,26.0,29.83,West,275,0.0,1.0,82,0.00,,,0.01,weatherlink.com 1.10,2013-02-04 23:19:00,
2013-02-04 18:34:00,30.2,26.0,29.84,NW,312,2.0,4.0,83,0.00,,,0.01,weatherlink.com 1.10,2013-02-04 23:34:00,
2013-02-04 18:49:00,29.9,26.0,29.85,WNW,299,1.0,4.0,85,0.00,,,0.01,weatherlink.com 1.10,2013-02-04 23:49:00,
2013-02-04 19:04:00,30.0,26.0,29.87,WSW,250,2.0,6.0,85,0.00,,,0.01,weatherlink.com 1.10,2013-02-05 00:04:00,
2013-02-04 19:19:00,30.0,26.0,29.87,WNW,298,1.0,9.0,86,0.00,,,0.01,weatherlink.com 1.10,2013-02-05 00:19:00,
2013-02-04 19:34:00,29.8,26.0,29.88,NW,306,4.0,7.0,86,0.00,,,0.01,weatherlink.com 1.10,2013-02-05 00:34:00,
2013-02-04 19:49:00,29.5,26.0,29.89,NW,304,3.0,8.0,87,0.00,,,0.01,weatherlink.com 1.10,2013-02-05 00:49:00,
2013-02-04 20:04:00,29.2,26.0,29.89,NW,314,5.0,7.0,88,0.00,,,0.01,weatherlink.com 1.10,2013-02-05 01:04:00,
2013-02-04 20:19:00,28.8,26.0,29.90,WNW,302,3.0,7.0,88,0.00,,,0.01,weatherlink.com 1.10,2013-02-05 01:19:00,
2013-02-04 20:34:00,28.6,26.0,29.90,NW,319,3.0,6.0,89,0.00,,,0.01,weatherlink.com 1.10,2013-02-05 01:34:00,
2013-02-04 20:49:00,28.5,26.0,29.91,WNW,293,0.0,7.0,89,0.00,,,0.01,weatherlink.com 1.10,2013-02-05 01:49:00,
2013-02-04 21:04:00,28.5,25.0,29.91,WSW,255,2.0,7.0,88,0.00,,,0.01,weatherlink.com 1.10,2013-02-05 02:04:00,
2013-02-04 21:19:00,28.4,25.0,29.91,WNW,286,3.0,7.0,87,0.00,,,0.01,weatherlink.com 1.10,2013-02-05 02:19:00,
2013-02-04 21:34:00,28.2,25.0,29.91,NW,320,2.0,9.0,86,0.00,,,0.01,weatherlink.com 1.10,2013-02-05 02:34:00,
2013-02-04 21:49:00,27.9,24.0,29.91,West,280,2.0,9.0,86,0.00,,,0.01,weatherlink.com 1.10,2013-02-05 02:49:00,
2013-02-04 22:04:00,27.7,24.0,29.91,WNW,291,7.0,9.0,87,0.00,,,0.01,weatherlink.com 1.10,2013-02-05 03:04:00,
2013-02-04 22:19:00,27.5,24.0,29.91,WSW,241,2.0,7.0,87,0.00,,,0.01,weatherlink.com 1.10,2013-02-05 03:19:00,
2013-02-04 22:34:00,27.3,24.0,29.91,NW,306,7.0,9.0,86,0.00,,,0.01,weatherlink.com 1.10,2013-02-05 03:34:00,
2013-02-04 22:49:00,27.0,23.0,29.91,NW,305,4.0,10.0,86,0.00,,,0.01,weatherlink.com 1.10,2013-02-05 03:49:00,
2013-02-04 23:04:00,26.9,24.0,29.93,WNW,291,0.0,8.0,87,0.00,,,0.01,weatherlink.com 1.10,2013-02-05 04:04:00,
2013-02-04 23:19:00,26.7,23.0,29.93,West,260,4.0,6.0,87,0.00,,,0.01,weatherlink.com 1.10,2013-02-05 04:19:00,
2013-02-04 23:34:00,26.4,23.0,29.93,WSW,258,2.0,7.0,87,0.00,,,0.01,weatherlink.com 1.10,2013-02-05 04:34:00,
2013-02-04 23:49:00,26.0,23.0,29.91,NW,314,4.0,6.0,87,0.00,,,0.01,weatherlink.com 1.10,2013-02-05 04:49:00,